Terminal Aerodrome Forecast
Issued by NWS Spokane, WA

Home | Current Version | Previous Version | Text Only | Print | Product List | Glossary On
Versions: 1 2 3 4 5 6 7 8 9 10 11 12 13 14 15 16 17 18 19 20
000
FTUS46 KOTX 222338
TAFGEG
TAF
KGEG 222338Z 2300/2324 22010KT P6SM SCT020 SCT110
     FM230900 16004KT 3SM BR OVC006
     FM231300 11005KT 1/2SM FZFG OVC002
     FM231800 10007KT 3SM BR BKN004
     FM232000 13009KT P6SM SCT015 OVC080
     FM232200 14008KT 3SM -SN OVC025=

USA.gov is the U.S. government's official web portal to all federal, state and local government web resources and services.